Time;durP1;ratioP1;P1;durP2;ratioP2;P2;SDS_P1;SDS_P2;PMS_P1;PMS_P2;Temp;Humidity;BMP_temperature;BMP_pressure;BME280_temperature;BME280_humidity;BME280_pressure;Samples;Min_cycle;Max_cycle;Signal;HPM_P1;HPM_P2
2022/04/05 00:01:42;;;;;;;;;15.67;11.00;;;;;;;;5076591;28;45505;-72
2022/04/05 00:04:07;;;;;;;;;18.33;15.00;;;;;;;;5076742;28;45373;-72
2022/04/05 00:06:32;;;;;;;;;18.00;13.33;;;;;;;;5076213;28;46391;-72
2022/04/05 00:08:57;;;;;;;;;17.00;13.67;;;;;;;;5075318;28;45331;-72
2022/04/05 00:11:23;;;;;;;;;15.00;12.67;;;;;;;;5076300;28;45314;-72
2022/04/05 00:13:48;;;;;;;;;23.00;15.67;;;;;;;;5076595;28;45406;-72
2022/04/05 00:16:13;;;;;;;;;18.67;16.33;;;;;;;;5076201;28;45772;-72
2022/04/05 00:18:41;;;;;;;;;18.00;15.33;;;;;;;;5076213;28;45305;-72
2022/04/05 00:21:06;;;;;;;;;15.67;13.67;;;;;;;;5076453;28;45403;-72
2022/04/05 00:23:32;;;;;;;;;18.00;13.00;;;;;;;;5076481;28;45499;-72
2022/04/05 00:25:57;;;;;;;;;14.67;13.33;;;;;;;;5076003;28;46292;-72
2022/04/05 00:28:22;;;;;;;;;18.67;15.33;;;;;;;;5076293;28;45407;-72
2022/04/05 00:30:47;;;;;;;;;20.00;16.00;;;;;;;;5076207;28;45503;-72
2022/04/05 00:33:13;;;;;;;;;18.67;16.67;;;;;;;;5076264;28;45454;-72
2022/04/05 00:35:38;;;;;;;;;15.67;13.33;;;;;;;;5076064;28;46298;-71
2022/04/05 00:38:03;;;;;;;;;16.33;14.67;;;;;;;;5075533;28;45496;-72
2022/04/05 00:40:30;;;;;;;;;18.33;15.67;;;;;;;;5075477;28;45533;-72
2022/04/05 00:42:55;;;;;;;;;20.67;12.33;;;;;;;;5075449;28;45343;-72
2022/04/05 00:45:23;;;;;;;;;15.67;15.00;;;;;;;;5075645;28;45300;-72
2022/04/05 00:47:50;;;;;;;;;20.67;16.00;;;;;;;;5077547;28;45311;-72
2022/04/05 00:50:19;;;;;;;;;17.67;16.33;;;;;;;;5077493;28;45638;-72
2022/04/05 00:52:45;;;;;;;;;16.67;14.33;;;;;;;;5077532;28;45526;-72
2022/04/05 00:55:11;;;;;;;;;18.33;13.67;;;;;;;;5077388;28;46405;-72
2022/04/05 00:57:36;;;;;;;;;24.33;16.67;;;;;;;;5077099;28;45458;-72
2022/04/05 01:00:04;;;;;;;;;16.00;14.00;;;;;;;;5077546;28;45253;-72
2022/04/05 01:02:36;;;;;;;;;16.33;12.67;;;;;;;;5084755;27;45545;-72
2022/04/05 01:05:01;;;;;;;;;11.75;11.25;;;;;;;;5097430;27;46228;-72
2022/04/05 01:07:30;;;;;;;;;18.00;14.00;;;;;;;;5087275;27;45418;-72
2022/04/05 01:09:56;;;;;;;;;16.25;11.00;;;;;;;;5077038;28;45336;-72
2022/04/05 01:12:22;;;;;;;;;15.67;13.33;;;;;;;;5077380;28;45305;-72
2022/04/05 01:14:47;;;;;;;;;16.00;13.33;;;;;;;;5075701;28;45611;-72
2022/04/05 01:17:13;;;;;;;;;20.00;15.00;;;;;;;;5076911;28;45324;-72
2022/04/05 01:19:38;;;;;;;;;22.33;17.00;;;;;;;;5078179;28;45374;-72
2022/04/05 01:22:03;;;;;;;;;21.33;13.67;;;;;;;;5080310;28;45441;-72
2022/04/05 01:24:28;;;;;;;;;18.33;16.00;;;;;;;;5080645;28;46567;-72
2022/04/05 01:26:56;;;;;;;;;12.33;12.33;;;;;;;;5079684;28;45484;-72
2022/04/05 01:29:23;;;;;;;;;16.00;15.00;;;;;;;;5080510;28;45447;-72
2022/04/05 01:31:49;;;;;;;;;16.33;13.33;;;;;;;;5080323;28;45438;-72
2022/04/05 01:34:16;;;;;;;;;18.33;14.00;;;;;;;;5080356;28;47033;-72
2022/04/05 01:36:45;;;;;;;;;19.33;16.33;;;;;;;;5080382;28;45333;-72
2022/04/05 01:39:11;;;;;;;;;15.25;12.00;;;;;;;;5080648;28;45336;-72
2022/04/05 01:41:36;;;;;;;;;19.00;14.00;;;;;;;;5080430;28;45520;-72
2022/04/05 01:44:02;;;;;;;;;14.67;14.67;;;;;;;;5080174;28;46131;-72
2022/04/05 01:46:28;;;;;;;;;15.33;13.67;;;;;;;;5080139;28;45277;-71
2022/04/05 01:48:53;;;;;;;;;14.33;14.33;;;;;;;;5080513;28;45437;-72
2022/04/05 01:51:18;;;;;;;;;10.50;10.25;;;;;;;;5080280;28;45220;-72
2022/04/05 01:53:44;;;;;;;;;22.67;16.00;;;;;;;;5079253;28;46186;-72
2022/04/05 01:56:09;;;;;;;;;17.67;17.33;;;;;;;;5080065;28;45526;-72
2022/04/05 01:58:37;;;;;;;;;22.67;18.33;;;;;;;;5080231;28;45257;-72
2022/04/05 02:01:03;;;;;;;;;20.00;12.67;;;;;;;;5079791;28;45566;-72
2022/04/05 02:03:29;;;;;;;;;14.00;12.00;;;;;;;;5079604;28;46552;-72
2022/04/05 02:05:54;;;;;;;;;24.33;16.67;;;;;;;;5079657;28;45377;-72
2022/04/05 02:08:19;;;;;;;;;12.33;11.00;;;;;;;;5080372;28;45328;-72
2022/04/05 02:10:44;;;;;;;;;14.00;12.67;;;;;;;;5079657;28;45410;-72
2022/04/05 02:13:10;;;;;;;;;18.67;15.00;;;;;;;;5096768;27;46152;-72
2022/04/05 02:15:35;;;;;;;;;15.33;15.33;;;;;;;;5100520;27;45414;-72
2022/04/05 02:18:00;;;;;;;;;15.00;13.67;;;;;;;;5086927;27;45577;-72
2022/04/05 02:20:26;;;;;;;;;21.33;14.33;;;;;;;;5080212;28;45375;-72
2022/04/05 02:22:51;;;;;;;;;20.00;17.00;;;;;;;;5079815;28;47208;-72
2022/04/05 02:25:17;;;;;;;;;18.67;17.33;;;;;;;;5096431;27;45442;-72
2022/04/05 02:27:42;;;;;;;;;14.00;12.67;;;;;;;;5100170;27;45732;-72
2022/04/05 02:30:08;;;;;;;;;17.67;15.00;;;;;;;;5097073;27;45492;-72
2022/04/05 02:32:33;;;;;;;;;15.00;14.33;;;;;;;;5060668;28;46441;-72
2022/04/05 02:34:58;;;;;;;;;14.00;12.67;;;;;;;;5079621;28;45352;-72
2022/04/05 02:37:23;;;;;;;;;11.00;11.00;;;;;;;;5079713;28;45407;-72
2022/04/05 02:39:49;;;;;;;;;19.67;15.67;;;;;;;;5080393;28;45571;-72
2022/04/05 02:42:14;;;;;;;;;17.00;15.67;;;;;;;;5079403;28;47308;-72
2022/04/05 02:44:39;;;;;;;;;16.33;14.33;;;;;;;;5079306;28;45418;-72
2022/04/05 02:47:04;;;;;;;;;22.67;14.67;;;;;;;;5079637;28;45295;-72
2022/04/05 02:49:30;;;;;;;;;19.67;16.33;;;;;;;;5079755;28;45350;-72
2022/04/05 02:51:55;;;;;;;;;13.00;12.33;;;;;;;;5078926;28;46940;-72
2022/04/05 02:54:20;;;;;;;;;14.67;14.67;;;;;;;;5079606;28;45531;-72
2022/04/05 02:56:45;;;;;;;;;14.67;14.67;;;;;;;;5078150;28;45467;-72
2022/04/05 02:59:11;;;;;;;;;19.33;14.33;;;;;;;;5078577;28;45399;-72
2022/04/05 03:01:36;;;;;;;;;16.67;16.67;;;;;;;;5074334;28;46175;-72
2022/04/05 03:04:01;;;;;;;;;17.00;12.33;;;;;;;;5069944;28;45312;-72
2022/04/05 03:06:26;;;;;;;;;15.33;14.67;;;;;;;;5079321;28;45342;-72
2022/04/05 03:08:56;;;;;;;;;15.67;15.33;;;;;;;;5079452;28;45498;-72
2022/04/05 03:11:22;;;;;;;;;17.00;14.67;;;;;;;;5078812;28;47050;-72
2022/04/05 03:13:47;;;;;;;;;22.67;19.33;;;;;;;;5078715;28;45459;-72
2022/04/05 03:16:12;;;;;;;;;17.67;14.33;;;;;;;;5078698;28;45441;-72
2022/04/05 03:18:39;;;;;;;;;17.00;12.67;;;;;;;;5079162;28;45590;-72
2022/04/05 03:21:04;;;;;;;;;18.67;16.67;;;;;;;;5078845;28;47233;-71
2022/04/05 03:23:29;;;;;;;;;14.00;12.00;;;;;;;;5078760;28;45328;-72
2022/04/05 03:25:55;;;;;;;;;17.67;16.67;;;;;;;;5078896;28;45315;-72
2022/04/05 03:28:20;;;;;;;;;15.00;11.33;;;;;;;;5078745;28;45204;-72
2022/04/05 03:30:47;;;;;;;;;22.67;17.00;;;;;;;;5078409;28;47257;-72
2022/04/05 03:33:12;;;;;;;;;18.00;15.33;;;;;;;;5078843;28;45311;-72
2022/04/05 03:35:38;;;;;;;;;14.67;13.00;;;;;;;;5077914;28;45340;-72
2022/04/05 03:38:03;;;;;;;;;15.33;13.00;;;;;;;;5078794;28;45324;-72
2022/04/05 03:40:28;;;;;;;;;28.67;28.67;;;;;;;;5078328;28;46469;-72
2022/04/05 03:42:54;;;;;;;;;17.33;14.67;;;;;;;;5077282;28;45368;-72
2022/04/05 03:45:19;;;;;;;;;12.33;12.33;;;;;;;;5078153;28;45354;-72
2022/04/05 03:47:44;;;;;;;;;20.67;14.67;;;;;;;;5078477;28;45289;-72
2022/04/05 03:50:09;;;;;;;;;12.50;11.00;;;;;;;;5077659;28;46639;-72
2022/04/05 03:52:34;;;;;;;;;21.67;18.67;;;;;;;;5077673;28;45364;-72
2022/04/05 03:55:00;;;;;;;;;17.00;15.33;;;;;;;;5078347;28;45291;-72
2022/04/05 03:57:25;;;;;;;;;19.67;14.67;;;;;;;;5078437;28;45426;-72
2022/04/05 03:59:50;;;;;;;;;28.00;22.67;;;;;;;;5078058;28;46185;-72
2022/04/05 04:02:15;;;;;;;;;22.67;19.00;;;;;;;;5078212;28;45275;-72
2022/04/05 04:04:41;;;;;;;;;17.33;13.67;;;;;;;;5090257;27;45407;-72
2022/04/05 04:07:06;;;;;;;;;18.00;15.00;;;;;;;;5098734;27;45451;-72
2022/04/05 04:09:31;;;;;;;;;17.33;13.33;;;;;;;;5098457;27;47135;-72
2022/04/05 04:11:57;;;;;;;;;14.00;14.00;;;;;;;;5098399;27;45260;-72
2022/04/05 04:14:22;;;;;;;;;18.33;10.67;;;;;;;;5098370;27;45445;-72
2022/04/05 04:16:47;;;;;;;;;18.67;17.00;;;;;;;;5098659;27;45373;-72
2022/04/05 04:19:12;;;;;;;;;22.33;15.33;;;;;;;;5085813;27;47363;-72
2022/04/05 04:21:38;;;;;;;;;20.00;15.00;;;;;;;;5078251;28;45360;-72
2022/04/05 04:24:03;;;;;;;;;17.33;15.00;;;;;;;;5077667;28;45372;-72
2022/04/05 04:26:29;;;;;;;;;19.00;16.00;;;;;;;;5078007;28;45304;-72
2022/04/05 04:28:57;;;;;;;;;15.00;14.00;;;;;;;;5077606;28;45839;-72
2022/04/05 04:31:23;;;;;;;;;15.00;11.00;;;;;;;;5077594;28;45334;-72
2022/04/05 04:33:48;;;;;;;;;22.33;16.33;;;;;;;;5077634;28;45446;-71
2022/04/05 04:36:13;;;;;;;;;21.67;18.00;;;;;;;;5077849;28;45317;-72
2022/04/05 04:38:39;;;;;;;;;23.67;18.33;;;;;;;;5077496;28;45405;-72
2022/04/05 04:41:04;;;;;;;;;18.33;16.33;;;;;;;;5076834;28;45275;-71
2022/04/05 04:43:29;;;;;;;;;16.00;14.33;;;;;;;;5077519;28;45352;-72
2022/04/05 04:45:54;;;;;;;;;17.00;16.00;;;;;;;;5078013;28;45312;-72
2022/04/05 04:48:20;;;;;;;;;20.33;17.33;;;;;;;;5077476;28;45419;-72
2022/04/05 04:50:46;;;;;;;;;19.67;18.00;;;;;;;;5076283;28;45338;-72
2022/04/05 04:53:12;;;;;;;;;20.67;18.00;;;;;;;;5077347;28;45351;-72
2022/04/05 04:55:37;;;;;;;;;18.67;13.67;;;;;;;;5077269;28;45320;-72
2022/04/05 04:58:02;;;;;;;;;21.33;17.00;;;;;;;;5080539;27;46603;-72
2022/04/05 05:00:27;;;;;;;;;17.00;15.00;;;;;;;;5079419;27;45392;-72
2022/04/05 05:02:52;;;;;;;;;17.33;16.33;;;;;;;;5098070;27;45194;-72
2022/04/05 05:05:18;;;;;;;;;17.00;17.00;;;;;;;;5088839;27;45442;-71
2022/04/05 05:07:44;;;;;;;;;16.67;15.67;;;;;;;;5077340;28;46213;-71
2022/04/05 05:10:11;;;;;;;;;19.67;16.67;;;;;;;;5077265;28;45483;-71
2022/04/05 05:12:36;;;;;;;;;19.33;14.33;;;;;;;;5077402;28;45403;-72
2022/04/05 05:15:02;;;;;;;;;21.00;18.00;;;;;;;;5076604;28;45530;-71
2022/04/05 05:17:27;;;;;;;;;18.33;16.00;;;;;;;;5079866;27;46428;-70
2022/04/05 05:19:53;;;;;;;;;19.67;19.33;;;;;;;;5092816;27;45442;-68
2022/04/05 05:22:18;;;;;;;;;23.33;19.67;;;;;;;;5077298;28;45446;-68
2022/04/05 05:24:43;;;;;;;;;23.33;16.33;;;;;;;;5076423;28;45399;-70
2022/04/05 05:27:08;;;;;;;;;18.00;17.00;;;;;;;;5076489;28;46294;-70
2022/04/05 05:29:34;;;;;;;;;17.33;14.33;;;;;;;;5076889;28;45418;-70
2022/04/05 05:31:59;;;;;;;;;18.00;16.67;;;;;;;;5076656;27;45513;-70
2022/04/05 05:34:24;;;;;;;;;18.33;16.00;;;;;;;;5076787;28;45374;-70
2022/04/05 05:36:49;;;;;;;;;17.00;16.00;;;;;;;;5076621;28;46962;-71
2022/04/05 05:39:15;;;;;;;;;20.00;17.67;;;;;;;;5076706;28;45360;-71
2022/04/05 05:41:40;;;;;;;;;23.67;19.67;;;;;;;;5076689;28;45387;-70
2022/04/05 05:44:06;;;;;;;;;20.67;17.00;;;;;;;;5077134;28;45379;-70
2022/04/05 05:46:31;;;;;;;;;19.00;15.67;;;;;;;;5076306;28;47085;-70
2022/04/05 05:48:56;;;;;;;;;20.00;18.00;;;;;;;;5076059;28;45345;-71
2022/04/05 05:51:21;;;;;;;;;21.67;18.00;;;;;;;;5076627;28;45258;-70
2022/04/05 05:53:47;;;;;;;;;17.00;17.00;;;;;;;;5076851;28;45379;-70
2022/04/05 05:56:12;;;;;;;;;19.00;15.00;;;;;;;;5075658;28;45661;-71
2022/04/05 05:58:37;;;;;;;;;15.00;13.67;;;;;;;;5076575;28;45242;-71
2022/04/05 06:01:02;;;;;;;;;23.00;17.00;;;;;;;;5076693;28;45304;-71
2022/04/05 06:03:28;;;;;;;;;18.33;14.33;;;;;;;;5076571;28;45295;-72
2022/04/05 06:05:53;;;;;;;;;14.67;13.67;;;;;;;;5075929;28;45478;-72
2022/04/05 06:08:19;;;;;;;;;18.00;16.00;;;;;;;;5079523;28;45311;-71
2022/04/05 06:10:44;;;;;;;;;20.33;17.33;;;;;;;;5079854;28;45379;-71
2022/04/05 06:13:09;;;;;;;;;16.00;15.00;;;;;;;;5080123;28;45564;-71
2022/04/05 06:15:35;;;;;;;;;19.33;18.67;;;;;;;;5079161;28;47314;-71
2022/04/05 06:18:00;;;;;;;;;19.00;18.67;;;;;;;;5079531;28;45765;-71
2022/04/05 06:20:26;;;;;;;;;17.33;16.00;;;;;;;;5079792;28;45199;-71
2022/04/05 06:22:52;;;;;;;;;17.00;13.00;;;;;;;;5079667;28;45406;-71
2022/04/05 06:25:19;;;;;;;;;21.33;17.33;;;;;;;;5079422;28;46593;-71
2022/04/05 06:27:44;;;;;;;;;20.33;16.33;;;;;;;;5078262;28;45848;-71
2022/04/05 06:30:10;;;;;;;;;19.33;17.67;;;;;;;;5079748;27;45516;-71
2022/04/05 06:32:35;;;;;;;;;18.00;13.67;;;;;;;;5079771;28;45512;-71
2022/04/05 06:35:02;;;;;;;;;16.00;11.75;;;;;;;;5079601;28;45394;-71
2022/04/05 06:37:27;;;;;;;;;21.33;16.67;;;;;;;;5079666;28;45372;-71
2022/04/05 06:39:52;;;;;;;;;18.33;15.33;;;;;;;;5079892;28;45342;-71
2022/04/05 06:42:18;;;;;;;;;13.33;12.00;;;;;;;;5078949;28;45327;-71
2022/04/05 06:44:43;;;;;;;;;18.33;17.00;;;;;;;;5079031;28;46958;-71
2022/04/05 06:47:11;;;;;;;;;19.33;16.33;;;;;;;;5079187;28;45317;-72
2022/04/05 06:49:37;;;;;;;;;13.33;13.00;;;;;;;;5079126;28;45446;-72
2022/04/05 06:52:02;;;;;;;;;15.67;12.33;;;;;;;;5079026;28;45424;-72
2022/04/05 06:54:27;;;;;;;;;13.33;13.33;;;;;;;;5078809;28;47275;-72
2022/04/05 06:56:52;;;;;;;;;16.00;14.33;;;;;;;;5079168;27;45349;-71
2022/04/05 06:59:18;;;;;;;;;17.00;15.00;;;;;;;;5096797;27;45531;-72
2022/04/05 07:01:43;;;;;;;;;18.33;14.00;;;;;;;;5099379;27;45506;-72
2022/04/05 07:04:08;;;;;;;;;10.75;9.50;;;;;;;;5099596;27;46243;-72
2022/04/05 07:06:33;;;;;;;;;14.25;13.25;;;;;;;;5097221;27;45728;-71
2022/04/05 07:08:59;;;;;;;;;13.33;12.67;;;;;;;;5085014;27;45441;-73
2022/04/05 07:11:24;;;;;;;;;13.25;10.75;;;;;;;;5078912;28;45364;-72
2022/04/05 07:13:51;;;;;;;;;11.25;10.25;;;;;;;;5090432;27;46632;-72
2022/04/05 07:16:17;;;;;;;;;12.00;11.50;;;;;;;;5097087;27;45365;-72
2022/04/05 07:18:42;;;;;;;;;15.00;13.75;;;;;;;;5083113;27;45312;-72
2022/04/05 07:21:08;;;;;;;;;17.67;14.00;;;;;;;;5079127;28;45492;-72
2022/04/05 07:23:36;;;;;;;;;18.00;14.33;;;;;;;;5078515;28;45340;-72
2022/04/05 07:26:01;;;;;;;;;17.33;14.00;;;;;;;;5078408;28;45555;-71
2022/04/05 07:28:26;;;;;;;;;10.00;10.00;;;;;;;;5078812;28;45262;-71
2022/04/05 07:30:52;;;;;;;;;28.33;25.00;;;;;;;;5085139;27;45575;-71
2022/04/05 07:33:18;;;;;;;;;14.00;13.00;;;;;;;;5099182;27;46245;-71
2022/04/05 07:35:43;;;;;;;;;17.00;13.67;;;;;;;;5096981;27;45377;-71
2022/04/05 07:38:09;;;;;;;;;15.33;13.00;;;;;;;;5098749;27;45462;-71
2022/04/05 07:40:49;;;;;;;;;17.33;17.33;;;;;;;;5098610;27;45414;-71
2022/04/05 07:43:16;;;;;;;;;18.33;14.67;;;;;;;;5098753;27;46644;-71
2022/04/05 07:45:41;;;;;;;;;14.33;13.33;;;;;;;;5098107;27;45435;-71
2022/04/05 07:48:07;;;;;;;;;14.33;11.33;;;;;;;;5098916;27;45276;-71
2022/04/05 07:50:32;;;;;;;;;13.75;10.75;;;;;;;;5098845;27;45398;-71
2022/04/05 07:52:57;;;;;;;;;20.33;18.00;;;;;;;;5098150;27;46498;-70
2022/04/05 07:55:22;;;;;;;;;15.67;11.00;;;;;;;;5098674;27;45362;-71
2022/04/05 07:57:49;;;;;;;;;11.50;11.50;;;;;;;;5097414;27;45370;-70
2022/04/05 08:00:14;;;;;;;;;13.00;13.00;;;;;;;;5098150;27;45560;-71
2022/04/05 08:02:40;;;;;;;;;15.00;11.00;;;;;;;;5098095;27;46130;-70
2022/04/05 08:05:05;;;;;;;;;14.67;14.00;;;;;;;;5098466;27;45370;-71
2022/04/05 08:07:30;;;;;;;;;11.50;11.25;;;;;;;;5097754;27;45345;-70
2022/04/05 08:09:57;;;;;;;;;9.00;9.00;;;;;;;;5078171;28;45472;-71
2022/04/05 08:12:22;;;;;;;;;13.67;11.67;;;;;;;;5077672;28;47339;-71
2022/04/05 08:14:47;;;;;;;;;10.50;9.25;;;;;;;;5083792;27;45288;-71
2022/04/05 08:17:12;;;;;;;;;10.00;8.75;;;;;;;;5098737;27;45381;-71
2022/04/05 08:19:38;;;;;;;;;15.33;12.00;;;;;;;;5096259;27;45276;-71
2022/04/05 08:22:03;;;;;;;;;8.67;8.67;;;;;;;;5098076;27;45291;-72
2022/04/05 08:24:28;;;;;;;;;12.25;10.00;;;;;;;;5098354;27;45327;-71
2022/04/05 08:26:53;;;;;;;;;15.00;11.75;;;;;;;;5097992;27;45608;-71
2022/04/05 08:29:19;;;;;;;;;11.50;9.75;;;;;;;;5097421;27;45537;-71
2022/04/05 08:31:44;;;;;;;;;10.50;9.00;;;;;;;;5080874;27;46131;-72
2022/04/05 08:34:09;;;;;;;;;13.00;10.50;;;;;;;;5074285;28;45697;-71
2022/04/05 08:36:34;;;;;;;;;11.75;10.75;;;;;;;;5076249;28;45406;-71
2022/04/05 08:39:00;;;;;;;;;10.25;10.25;;;;;;;;5077706;28;45372;-72
2022/04/05 08:41:27;;;;;;;;;7.75;7.75;;;;;;;;5088910;27;46156;-72
2022/04/05 08:43:52;;;;;;;;;5.75;4.25;;;;;;;;5078225;27;45521;-71
2022/04/05 08:46:19;;;;;;;;;8.00;7.25;;;;;;;;5076712;27;45738;-72
2022/04/05 08:48:47;;;;;;;;;11.50;9.00;;;;;;;;5085470;27;45306;-72
2022/04/05 08:51:13;;;;;;;;;7.50;7.50;;;;;;;;5083999;27;46070;-72
2022/04/05 08:53:39;;;;;;;;;8.50;8.50;;;;;;;;5077581;27;45532;-72
2022/04/05 08:56:04;;;;;;;;;7.50;7.50;;;;;;;;5080247;27;45387;-72
2022/04/05 08:58:29;;;;;;;;;10.00;7.50;;;;;;;;5077592;28;45388;-72
2022/04/05 09:00:55;;;;;;;;;8.50;7.00;;;;;;;;5076795;28;46264;-72
2022/04/05 09:03:20;;;;;;;;;9.00;7.75;;;;;;;;5075906;28;45293;-72
2022/04/05 09:05:46;;;;;;;;;9.00;6.50;;;;;;;;5076406;28;45420;-72
2022/04/05 09:08:16;;;;;;;;;8.25;8.25;;;;;;;;5076488;28;45554;-72
2022/04/05 09:10:41;;;;;;;;;9.00;8.00;;;;;;;;5074739;28;46639;-72
2022/04/05 09:13:09;;;;;;;;;6.00;6.00;;;;;;;;5075240;28;45474;-72
2022/04/05 09:15:35;;;;;;;;;20.33;19.00;;;;;;;;5075147;28;45364;-72
2022/04/05 09:18:01;;;;;;;;;9.00;9.00;;;;;;;;5074982;28;45477;-72
2022/04/05 09:20:27;;;;;;;;;11.75;9.75;;;;;;;;5074946;28;47003;-72
2022/04/05 09:22:56;;;;;;;;;9.00;8.75;;;;;;;;5059674;28;45501;-71
2022/04/05 09:25:21;;;;;;;;;7.50;7.00;;;;;;;;5056119;28;45592;-71
2022/04/05 09:27:51;;;;;;;;;7.25;6.00;;;;;;;;5055819;28;45786;-72
2022/04/05 09:30:18;;;;;;;;;8.75;8.75;;;;;;;;5055411;28;46437;-71
2022/04/05 09:32:47;;;;;;;;;9.50;8.75;;;;;;;;5055746;28;45321;-71
2022/04/05 09:35:12;;;;;;;;;12.25;7.00;;;;;;;;5056775;28;45479;-71
2022/04/05 09:37:40;;;;;;;;;7.75;7.25;;;;;;;;5076591;28;45512;-70
2022/04/05 09:40:15;;;;;;;;;11.00;9.00;;;;;;;;5076485;28;45715;-70
2022/04/05 09:42:58;;;;;;;;;6.25;6.25;;;;;;;;5078239;27;45415;-70
2022/04/05 09:45:42;;;;;;;;;7.00;6.00;;;;;;;;5080809;27;45618;-70
2022/04/05 09:48:08;;;;;;;;;7.00;6.00;;;;;;;;5070346;28;45566;-69
2022/04/05 09:50:53;;;;;;;;;6.00;6.00;;;;;;;;5091232;27;45945;-68
2022/04/05 09:53:19;;;;;;;;;6.50;6.50;;;;;;;;5078549;28;45423;-69
2022/04/05 09:55:44;;;;;;;;;9.25;7.50;;;;;;;;5080319;28;46058;-68
2022/04/05 09:58:13;;;;;;;;;6.75;6.75;;;;;;;;5081491;27;45257;-68
2022/04/05 10:00:39;;;;;;;;;8.75;7.00;;;;;;;;5072804;28;47105;-68
2022/04/05 10:03:05;;;;;;;;;5.75;5.00;;;;;;;;5079893;28;45441;-68
2022/04/05 10:05:31;;;;;;;;;7.00;7.00;;;;;;;;5080001;28;45468;-68
2022/04/05 10:07:57;;;;;;;;;5.75;5.75;;;;;;;;5080020;28;45306;-68
2022/04/05 10:10:23;;;;;;;;;6.00;6.00;;;;;;;;5079665;28;45978;-68
2022/04/05 10:12:49;;;;;;;;;10.75;6.75;;;;;;;;5079643;28;45403;-69
2022/04/05 10:15:15;;;;;;;;;9.00;7.00;;;;;;;;5079683;28;45447;-69
2022/04/05 10:17:45;;;;;;;;;8.50;8.50;;;;;;;;5079901;28;45265;-69
2022/04/05 10:20:11;;;;;;;;;8.00;6.00;;;;;;;;5079512;28;46258;-69
2022/04/05 10:22:38;;;;;;;;;6.50;6.50;;;;;;;;5077435;28;45609;-69
2022/04/05 10:25:03;;;;;;;;;8.00;8.00;;;;;;;;5075623;28;45495;-70
2022/04/05 10:27:29;;;;;;;;;6.50;6.50;;;;;;;;5075173;28;45539;-69
2022/04/05 10:30:05;;;;;;;;;9.75;8.00;;;;;;;;5074923;28;45801;-69
2022/04/05 10:32:36;;;;;;;;;5.50;5.50;;;;;;;;5074898;28;45383;-69
2022/04/05 10:35:03;;;;;;;;;4.75;4.75;;;;;;;;5077263;28;45512;-69
2022/04/05 10:37:29;;;;;;;;;5.75;5.75;;;;;;;;5076853;28;45507;-69
2022/04/05 10:39:57;;;;;;;;;5.75;5.75;;;;;;;;5077656;28;45304;-69
2022/04/05 10:42:25;;;;;;;;;5.00;5.00;;;;;;;;5076904;28;45374;-69
2022/04/05 10:45:08;;;;;;;;;7.25;4.50;;;;;;;;5077762;28;45391;-69
2022/04/05 10:47:54;;;;;;;;;9.00;5.33;;;;;;;;5077612;28;45451;-69
2022/04/05 10:50:19;;;;;;;;;9.00;6.33;;;;;;;;5077040;28;46231;-69
2022/04/05 10:52:46;;;;;;;;;7.67;6.67;;;;;;;;5075850;28;45430;-69
2022/04/05 10:55:12;;;;;;;;;8.50;8.50;;;;;;;;5077644;28;45439;-69
2022/04/05 10:57:38;;;;;;;;;5.00;5.00;;;;;;;;5076826;28;45435;-69
2022/04/05 11:00:04;;;;;;;;;9.75;6.75;;;;;;;;5077341;28;46522;-69
2022/04/05 11:02:33;;;;;;;;;7.33;7.33;;;;;;;;5076899;28;45382;-69
2022/04/05 11:05:27;;;;;;;;;5.00;5.00;;;;;;;;5076987;28;45416;-69
2022/04/05 11:07:59;;;;;;;;;4.50;4.50;;;;;;;;5074482;28;45623;-69
2022/04/05 11:10:28;;;;;;;;;5.75;5.00;;;;;;;;5077020;28;46115;-69
2022/04/05 11:13:07;;;;;;;;;9.75;6.75;;;;;;;;5076428;28;45396;-69
2022/04/05 11:15:39;;;;;;;;;7.33;6.00;;;;;;;;5077307;28;45404;-69
2022/04/05 11:18:05;;;;;;;;;5.33;5.33;;;;;;;;5077063;28;45424;-69
2022/04/05 11:20:30;;;;;;;;;6.00;5.67;;;;;;;;5076782;28;45485;-69
2022/04/05 11:23:00;;;;;;;;;7.75;5.25;;;;;;;;5074905;28;45468;-69
2022/04/05 11:25:26;;;;;;;;;5.75;5.00;;;;;;;;5074029;28;45494;-69
2022/04/05 11:27:53;;;;;;;;;7.00;5.00;;;;;;;;5073514;28;45593;-71
2022/04/05 11:30:27;;;;;;;;;10.75;6.75;;;;;;;;5073569;28;46225;-71
2022/04/05 11:33:17;;;;;;;;;11.00;11.00;;;;;;;;5074067;28;45522;-71
2022/04/05 11:35:51;;;;;;;;;8.00;7.00;;;;;;;;5076513;28;45327;-71
2022/04/05 11:38:16;;;;;;;;;10.00;5.75;;;;;;;;5076858;28;45377;-70
2022/04/05 11:40:42;;;;;;;;;6.00;6.00;;;;;;;;5075472;28;46331;-71
2022/04/05 11:43:15;;;;;;;;;8.50;6.50;;;;;;;;5075915;28;45459;-71
2022/04/05 11:45:41;;;;;;;;;5.00;5.00;;;;;;;;5076415;28;45362;-70
2022/04/05 11:48:06;;;;;;;;;5.33;4.00;;;;;;;;5076866;28;45542;-70
2022/04/05 11:50:37;;;;;;;;;41.00;36.00;;;;;;;;5075968;28;46567;-71
2022/04/05 11:53:22;;;;;;;;;6.67;6.67;;;;;;;;5075587;28;45393;-70
2022/04/05 11:56:06;;;;;;;;;10.25;8.75;;;;;;;;5075538;28;45462;-71
2022/04/05 11:58:34;;;;;;;;;6.00;4.75;;;;;;;;5075638;28;45404;-71
2022/04/05 12:01:00;;;;;;;;;6.00;5.00;;;;;;;;5079245;27;46507;-69
2022/04/05 12:03:26;;;;;;;;;6.00;5.00;;;;;;;;5073800;28;45463;-70
2022/04/05 12:05:52;;;;;;;;;12.25;5.75;;;;;;;;5074055;28;45535;-70
2022/04/05 12:08:17;;;;;;;;;9.00;6.25;;;;;;;;5075321;28;45436;-71
2022/04/05 12:10:44;;;;;;;;;6.75;6.75;;;;;;;;5075198;28;46438;-70
2022/04/05 12:13:09;;;;;;;;;7.25;4.50;;;;;;;;5075246;28;45686;-70
2022/04/05 12:15:36;;;;;;;;;7.50;5.75;;;;;;;;5074937;28;45399;-72
2022/04/05 12:18:19;;;;;;;;;5.75;5.75;;;;;;;;5074952;28;45510;-69
2022/04/05 12:21:08;;;;;;;;;8.00;4.67;;;;;;;;5077205;28;46337;-69
2022/04/05 12:23:35;;;;;;;;;6.00;5.75;;;;;;;;5077495;28;45311;-70
2022/04/05 12:26:19;;;;;;;;;6.25;6.25;;;;;;;;5077298;28;45440;-70
2022/04/05 12:28:46;;;;;;;;;8.75;5.75;;;;;;;;5077533;28;45470;-69
2022/04/05 12:31:12;;;;;;;;;6.75;5.25;;;;;;;;5076927;28;46266;-69
2022/04/05 12:33:38;;;;;;;;;15.33;15.33;;;;;;;;5077019;28;45453;-69
2022/04/05 12:36:05;;;;;;;;;9.33;9.33;;;;;;;;5077063;28;45334;-69
2022/04/05 12:38:30;;;;;;;;;10.67;7.00;;;;;;;;5077522;28;45325;-69
2022/04/05 12:40:56;;;;;;;;;9.00;7.00;;;;;;;;5076910;28;46404;-69
2022/04/05 12:43:21;;;;;;;;;12.33;11.00;;;;;;;;5077118;28;45424;-69
2022/04/05 12:45:47;;;;;;;;;4.75;4.75;;;;;;;;5077726;27;45467;-69
2022/04/05 12:48:13;;;;;;;;;9.00;7.33;;;;;;;;5079390;27;45676;-69
2022/04/05 12:50:43;;;;;;;;;10.00;9.00;;;;;;;;5062264;27;45378;-69
2022/04/05 12:53:08;;;;;;;;;6.00;5.50;;;;;;;;5079364;27;45330;-69
2022/04/05 12:55:34;;;;;;;;;5.75;5.50;;;;;;;;5075800;28;45859;-69
2022/04/05 12:57:59;;;;;;;;;7.33;5.67;;;;;;;;5076701;27;45799;-69
2022/04/05 13:00:30;;;;;;;;;3.00;3.00;;;;;;;;5076617;28;46542;-69
2022/04/05 13:03:11;;;;;;;;;4.25;4.00;;;;;;;;5094621;27;45584;-69
2022/04/05 13:08:30;;;;;;;;;7.33;7.33;;;;;;;;5097470;27;45385;-69
2022/04/05 13:10:56;;;;;;;;;5.75;5.25;;;;;;;;5087377;27;46783;-68
2022/04/05 13:13:41;;;;;;;;;12.00;7.33;;;;;;;;5083989;27;45354;-68
2022/04/05 13:16:07;;;;;;;;;8.33;7.00;;;;;;;;5088591;27;45528;-68
2022/04/05 13:18:33;;;;;;;;;10.50;5.75;;;;;;;;5079829;27;45359;-68
2022/04/05 13:21:00;;;;;;;;;7.75;4.25;;;;;;;;5086884;27;47144;-68
2022/04/05 13:23:26;;;;;;;;;6.00;5.25;;;;;;;;5100677;27;45474;-68
2022/04/05 13:25:51;;;;;;;;;6.00;6.00;;;;;;;;5100553;27;45261;-69
2022/04/05 13:28:17;;;;;;;;;6.50;4.00;;;;;;;;5100841;27;45403;-69
2022/04/05 13:30:43;;;;;;;;;6.00;6.00;;;;;;;;5100441;27;45540;-69
2022/04/05 13:33:09;;;;;;;;;5.50;5.50;;;;;;;;5100297;27;45465;-68
2022/04/05 13:35:34;;;;;;;;;5.75;5.75;;;;;;;;5098883;27;45386;-69
2022/04/05 13:37:59;;;;;;;;;7.33;6.00;;;;;;;;5100454;27;45342;-69
2022/04/05 13:40:26;;;;;;;;;7.50;6.25;;;;;;;;5090736;27;46183;-69
2022/04/05 13:42:53;;;;;;;;;7.75;7.00;;;;;;;;5084331;27;45568;-69
2022/04/05 13:45:18;;;;;;;;;8.00;7.33;;;;;;;;5095860;27;45423;-69
2022/04/05 13:47:45;;;;;;;;;7.33;7.33;;;;;;;;5079697;28;45506;-68
2022/04/05 13:50:10;;;;;;;;;6.75;4.75;;;;;;;;5086363;27;46980;-69
2022/04/05 13:52:36;;;;;;;;;5.00;4.33;;;;;;;;5097557;27;45461;-68
2022/04/05 13:55:04;;;;;;;;;9.33;6.67;;;;;;;;5085109;27;45373;-69
2022/04/05 13:57:29;;;;;;;;;13.00;9.00;;;;;;;;5080304;27;45323;-69
2022/04/05 13:59:54;;;;;;;;;10.00;6.33;;;;;;;;5079305;27;45687;-68
2022/04/05 14:02:20;;;;;;;;;18.33;16.33;;;;;;;;5090138;27;45438;-68
2022/04/05 14:04:45;;;;;;;;;8.67;6.33;;;;;;;;5079623;28;45913;-68
2022/04/05 14:07:12;;;;;;;;;9.67;9.00;;;;;;;;5079901;28;45356;-68
2022/04/05 14:09:37;;;;;;;;;11.00;11.00;;;;;;;;5077554;28;46427;-69
2022/04/05 14:12:03;;;;;;;;;11.33;8.67;;;;;;;;5080422;27;45494;-68
2022/04/05 14:14:28;;;;;;;;;13.67;10.67;;;;;;;;5079531;28;45304;-68
2022/04/05 14:16:53;;;;;;;;;11.00;11.00;;;;;;;;5077964;28;45478;-68
2022/04/05 14:19:19;;;;;;;;;10.00;10.00;;;;;;;;5077275;28;47294;-68
2022/04/05 14:21:44;;;;;;;;;13.67;12.00;;;;;;;;5078628;28;45421;-68
2022/04/05 14:24:10;;;;;;;;;12.67;11.67;;;;;;;;5077810;28;45522;-68
2022/04/05 14:26:35;;;;;;;;;18.00;14.00;;;;;;;;5078238;28;45373;-68